createdAt,value
2022-09-15T00:01:12.609Z,20.88
2022-09-15T00:04:36.543Z,20.91
2022-09-15T00:08:00.279Z,20.84
2022-09-15T00:11:25.090Z,20.82
2022-09-15T00:14:48.963Z,20.82
2022-09-15T00:18:13.401Z,20.77
2022-09-15T00:21:38.196Z,20.75
2022-09-15T00:25:04.465Z,20.68
2022-09-15T00:28:26.172Z,20.58
2022-09-15T00:31:50.514Z,20.14
2022-09-15T00:35:12.186Z,19.89
2022-09-15T00:38:38.585Z,19.58
2022-09-15T00:42:00.319Z,19.66
2022-09-15T00:45:21.978Z,19.69
2022-09-15T00:48:48.790Z,19.71
2022-09-15T00:52:15.792Z,19.75
2022-09-15T00:55:44.220Z,19.83
2022-09-15T00:59:15.228Z,19.90
2022-09-15T01:02:38.187Z,20.03
2022-09-15T01:06:12.365Z,20.13
2022-09-15T01:09:45.767Z,20.10
2022-09-15T01:13:10.631Z,20.12
2022-09-15T01:16:49.095Z,20.19
2022-09-15T01:20:32.297Z,20.26
2022-09-15T01:24:06.073Z,20.39
2022-09-15T01:27:42.884Z,20.41
2022-09-15T01:31:20.131Z,20.45
2022-09-15T01:38:40.131Z,20.44
2022-09-15T01:42:08.638Z,20.41
2022-09-15T01:45:33.400Z,20.41
2022-09-15T01:48:56.493Z,20.47
2022-09-15T01:52:21.434Z,20.48
2022-09-15T01:55:49.134Z,20.45
2022-09-15T01:59:11.083Z,20.39
2022-09-15T02:02:42.976Z,20.37
2022-09-15T02:06:14.672Z,20.36
2022-09-15T02:10:02.480Z,20.37
2022-09-15T02:13:32.771Z,20.34
2022-09-15T02:16:57.567Z,20.29
2022-09-15T02:20:34.525Z,20.30
2022-09-15T02:24:01.337Z,20.26
2022-09-15T02:27:30.213Z,20.24
2022-09-15T02:30:57.173Z,20.24
2022-09-15T02:34:24.570Z,20.27
2022-09-15T02:37:46.764Z,20.30
2022-09-15T02:41:09.142Z,20.31
2022-09-15T02:44:33.576Z,20.31
2022-09-15T02:47:55.129Z,20.33
2022-09-15T02:51:18.071Z,20.33
2022-09-15T02:54:39.649Z,20.36
2022-09-15T02:58:01.222Z,20.37
2022-09-15T03:01:31.757Z,20.36
2022-09-15T03:04:53.320Z,20.37
2022-09-15T03:08:14.895Z,20.33
2022-09-15T03:11:40.009Z,20.37
2022-09-15T03:15:01.533Z,20.33
2022-09-15T03:18:23.028Z,20.34
2022-09-15T03:21:46.786Z,20.26
2022-09-15T03:25:11.238Z,20.24
2022-09-15T03:28:32.770Z,20.29
2022-09-15T03:31:54.650Z,20.29
2022-09-15T03:35:18.930Z,20.29
2022-09-15T03:38:40.638Z,20.33
2022-09-15T03:42:02.360Z,20.33
2022-09-15T03:45:23.970Z,20.23
2022-09-15T03:48:45.573Z,20.22
2022-09-15T03:52:07.131Z,20.22
2022-09-15T03:55:29.274Z,20.10
2022-09-15T03:58:51.398Z,20.10
2022-09-15T04:02:15.137Z,20.02
2022-09-15T04:05:36.784Z,20.02
2022-09-15T04:09:00.206Z,19.96
2022-09-15T04:12:21.907Z,19.99
2022-09-15T04:15:44.545Z,20.09
2022-09-15T04:19:08.282Z,20.09
2022-09-15T04:22:35.225Z,20.09
2022-09-15T04:25:58.497Z,20.14
2022-09-15T04:29:23.067Z,20.14
2022-09-15T04:32:44.578Z,20.09
2022-09-15T04:36:12.122Z,20.12
2022-09-15T04:39:33.616Z,20.19
2022-09-15T04:42:55.386Z,20.17
2022-09-15T04:46:18.487Z,20.20
2022-09-15T04:49:40.228Z,20.20
2022-09-15T04:53:06.323Z,20.17
2022-09-15T04:56:27.939Z,20.22
2022-09-15T04:59:49.444Z,20.20
2022-09-15T05:03:12.169Z,20.30
2022-09-15T05:06:35.275Z,20.27
2022-09-15T05:09:59.126Z,20.34
2022-09-15T05:13:20.604Z,20.41
2022-09-15T05:16:42.286Z,20.48
2022-09-15T05:20:05.228Z,20.57
2022-09-15T05:23:29.553Z,20.67
2022-09-15T05:26:53.748Z,20.70
2022-09-15T05:30:36.780Z,20.57
2022-09-15T05:33:57.172Z,20.48
2022-09-15T05:37:19.892Z,20.51
2022-09-15T05:40:43.797Z,20.64
2022-09-15T05:44:05.696Z,20.55
2022-09-15T05:47:27.230Z,20.48
2022-09-15T05:50:53.085Z,20.48
2022-09-15T05:54:14.578Z,20.45
2022-09-15T05:57:36.118Z,20.50
2022-09-15T06:01:09.591Z,20.55
2022-09-15T06:04:31.250Z,20.71
2022-09-15T06:07:56.005Z,20.79
2022-09-15T06:11:22.369Z,20.87
2022-09-15T06:14:45.857Z,20.81
2022-09-15T06:18:07.395Z,20.87
2022-09-15T06:21:32.938Z,20.82
2022-09-15T06:24:56.747Z,20.87
2022-09-15T06:28:21.272Z,20.78
2022-09-15T06:31:45.265Z,20.82
2022-09-15T06:35:07.230Z,20.89
2022-09-15T06:38:29.444Z,20.99
2022-09-15T06:42:02.263Z,21.00
2022-09-15T06:45:27.490Z,21.08
2022-09-15T06:48:52.021Z,21.19
2022-09-15T06:52:13.598Z,21.22
2022-09-15T06:55:35.139Z,21.32
2022-09-15T06:58:56.697Z,21.32
2022-09-15T07:02:18.325Z,21.33
2022-09-15T07:05:43.247Z,21.37
2022-09-15T07:09:08.132Z,21.45
2022-09-15T07:12:29.770Z,21.54
2022-09-15T07:16:01.291Z,21.58
2022-09-15T07:19:23.426Z,21.65
2022-09-15T07:22:44.977Z,21.80
2022-09-15T07:26:12.210Z,22.00
2022-09-15T07:29:37.687Z,22.02
2022-09-15T07:32:59.454Z,22.28
2022-09-15T07:36:21.462Z,22.60
2022-09-15T07:39:43.473Z,22.77
2022-09-15T07:43:06.455Z,23.17
2022-09-15T07:46:33.419Z,23.46
2022-09-15T07:49:57.288Z,23.41
2022-09-15T07:53:18.811Z,23.29
2022-09-15T07:56:42.869Z,23.27
2022-09-15T08:00:05.474Z,23.45
2022-09-15T08:03:26.962Z,23.80
2022-09-15T08:06:52.135Z,23.82
2022-09-15T08:10:13.658Z,23.87
2022-09-15T08:13:38.209Z,23.92
2022-09-15T08:17:01.187Z,24.09
2022-09-15T08:20:22.732Z,24.57
2022-09-15T08:23:44.317Z,24.85
2022-09-15T08:27:05.874Z,24.88
2022-09-15T08:30:27.496Z,24.89
2022-09-15T08:33:51.772Z,24.73
2022-09-15T08:37:13.345Z,24.99
2022-09-15T08:40:37.104Z,25.20
2022-09-15T08:44:08.127Z,25.40
2022-09-15T08:47:34.312Z,25.85
2022-09-15T08:51:02.456Z,25.92
2022-09-15T08:54:28.057Z,25.71
2022-09-15T08:57:55.856Z,25.80
2022-09-15T09:01:53.155Z,26.03
2022-09-15T09:05:30.080Z,26.19
2022-09-15T09:09:05.175Z,26.39
2022-09-15T09:12:32.841Z,26.84
2022-09-15T09:16:26.740Z,26.78
2022-09-15T09:19:57.723Z,26.67
2022-09-15T09:23:24.382Z,27.05
2022-09-15T09:26:51.043Z,27.06
2022-09-15T09:30:12.620Z,27.06
2022-09-15T09:34:06.505Z,26.95
2022-09-15T09:37:28.291Z,27.14
2022-09-15T09:40:50.552Z,27.36
2022-09-15T09:44:14.776Z,28.00
2022-09-15T09:47:39.319Z,27.93
2022-09-15T09:51:01.128Z,28.10
2022-09-15T09:54:28.775Z,28.45
2022-09-15T09:57:50.999Z,28.11
2022-09-15T10:01:15.437Z,28.10
2022-09-15T10:04:38.630Z,28.77
2022-09-15T10:08:04.659Z,28.55
2022-09-15T10:11:48.670Z,27.97
2022-09-15T10:15:23.707Z,27.81
2022-09-15T10:18:54.330Z,27.43
2022-09-15T10:22:29.271Z,27.08
2022-09-15T10:26:00.161Z,26.84
2022-09-15T10:29:24.432Z,26.74
2022-09-15T10:32:46.005Z,26.71
2022-09-15T10:36:17.192Z,26.67
2022-09-15T10:39:38.879Z,26.61
2022-09-15T10:43:12.528Z,26.57
2022-09-15T10:47:00.914Z,26.77
2022-09-15T10:50:22.282Z,27.22
2022-09-15T10:53:56.749Z,27.08
2022-09-15T10:57:56.569Z,27.28
2022-09-15T11:01:32.360Z,26.90
2022-09-15T11:05:20.398Z,26.92
2022-09-15T11:09:05.511Z,26.84
2022-09-15T11:12:56.520Z,26.67
2022-09-15T11:16:38.805Z,26.63
2022-09-15T11:20:29.625Z,26.67
2022-09-15T11:24:17.379Z,26.51
2022-09-15T11:28:01.654Z,26.28
2022-09-15T11:31:32.151Z,26.13
2022-09-15T11:35:19.235Z,25.93
2022-09-15T11:38:59.505Z,25.67
2022-09-15T11:42:30.664Z,25.62
2022-09-15T11:45:55.563Z,25.55
2022-09-15T11:49:23.105Z,25.55
2022-09-15T11:52:58.856Z,25.58
2022-09-15T11:56:34.576Z,25.64
2022-09-15T12:00:12.986Z,25.77
2022-09-15T12:03:34.966Z,25.93
2022-09-15T12:07:02.878Z,25.91
2022-09-15T12:10:35.790Z,25.89
2022-09-15T12:14:00.112Z,25.82
2022-09-15T12:17:41.038Z,25.85
2022-09-15T12:21:18.133Z,25.55
2022-09-15T12:24:45.943Z,25.45
2022-09-15T12:28:22.893Z,25.26
2022-09-15T12:31:45.135Z,25.33
2022-09-15T12:35:18.814Z,25.27
2022-09-15T12:38:48.366Z,25.34
2022-09-15T12:42:12.722Z,25.35
2022-09-15T12:45:41.481Z,25.35
2022-09-15T12:49:05.494Z,25.34
2022-09-15T12:52:31.974Z,25.35
2022-09-15T12:56:01.040Z,25.35
2022-09-15T12:59:25.737Z,25.37
2022-09-15T13:02:52.051Z,25.19
2022-09-15T13:06:21.049Z,25.13
2022-09-15T13:09:58.834Z,25.09
2022-09-15T13:13:33.663Z,25.00
2022-09-15T13:17:01.021Z,23.73
2022-09-15T13:20:32.787Z,20.44
2022-09-15T13:23:54.426Z,19.24
2022-09-15T13:27:26.525Z,18.75
2022-09-15T13:31:33.073Z,18.73
2022-09-15T13:35:16.869Z,19.16
2022-09-15T13:39:15.935Z,19.81
2022-09-15T13:42:40.277Z,20.17
2022-09-15T13:46:17.420Z,20.52
2022-09-15T13:50:00.934Z,19.78
2022-09-15T13:53:37.266Z,19.95
2022-09-15T13:57:01.256Z,19.74
2022-09-15T14:00:26.883Z,20.37
2022-09-15T14:03:53.690Z,20.13
2022-09-15T14:07:24.833Z,20.54
2022-09-15T14:10:54.786Z,20.65
2022-09-15T14:14:28.513Z,20.34
2022-09-15T14:17:50.531Z,20.24
2022-09-15T14:21:21.648Z,20.41
2022-09-15T14:24:45.630Z,20.84
2022-09-15T14:28:18.013Z,20.82
2022-09-15T14:31:43.876Z,20.47
2022-09-15T14:35:14.927Z,20.77
2022-09-15T14:38:41.256Z,20.84
2022-09-15T14:42:21.237Z,20.12
2022-09-15T14:45:55.675Z,20.26
2022-09-15T14:49:20.611Z,20.45
2022-09-15T14:53:06.767Z,20.84
2022-09-15T14:56:33.157Z,20.88
2022-09-15T14:59:59.998Z,20.67
2022-09-15T15:03:31.858Z,20.24
2022-09-15T15:07:03.972Z,20.33
2022-09-15T15:10:33.413Z,19.78
2022-09-15T15:13:57.498Z,19.50
2022-09-15T15:17:51.653Z,19.72
2022-09-15T15:21:44.542Z,19.72
2022-09-15T15:25:36.502Z,19.62
2022-09-15T15:28:57.983Z,20.05
2022-09-15T15:32:30.023Z,20.06
2022-09-15T15:36:20.806Z,20.06
2022-09-15T15:39:46.537Z,20.23
2022-09-15T15:43:21.038Z,19.71
2022-09-15T15:46:54.790Z,19.31
2022-09-15T15:50:25.404Z,19.30
2022-09-15T15:53:46.924Z,19.14
2022-09-15T15:57:23.890Z,19.04
2022-09-15T16:00:47.025Z,19.10
2022-09-15T16:04:08.849Z,19.51
2022-09-15T16:07:33.394Z,19.48
2022-09-15T16:10:56.803Z,19.66
2022-09-15T16:14:18.521Z,19.89
2022-09-15T16:17:45.854Z,20.06
2022-09-15T16:21:19.692Z,19.81
2022-09-15T16:24:41.265Z,19.81
2022-09-15T16:28:04.161Z,20.17
2022-09-15T16:31:28.185Z,20.22
2022-09-15T16:34:54.405Z,20.26
2022-09-15T16:38:20.055Z,20.03
2022-09-15T16:41:44.281Z,19.95
2022-09-15T16:45:18.928Z,20.27
2022-09-15T16:48:42.876Z,20.44
2022-09-15T16:52:04.456Z,20.52
2022-09-15T16:55:31.957Z,20.23
2022-09-15T16:58:58.849Z,19.44
2022-09-15T17:02:22.447Z,19.21
2022-09-15T17:05:49.877Z,19.06
2022-09-15T17:09:14.076Z,19.34
2022-09-15T17:12:37.445Z,19.59
2022-09-15T17:16:02.722Z,19.39
2022-09-15T17:19:24.246Z,19.00
2022-09-15T17:22:49.581Z,18.93
2022-09-15T17:26:13.772Z,18.86
2022-09-15T17:29:35.400Z,19.21
2022-09-15T17:33:08.040Z,19.48
2022-09-15T17:36:29.660Z,19.51
2022-09-15T17:39:56.879Z,19.45
2022-09-15T17:43:23.081Z,19.66
2022-09-15T17:46:44.642Z,19.78
2022-09-15T17:50:09.445Z,19.96
2022-09-15T17:53:33.249Z,20.30
2022-09-15T17:56:54.813Z,20.58
2022-09-15T18:00:18.799Z,20.64
2022-09-15T18:03:42.195Z,20.60
2022-09-15T18:07:05.945Z,20.16
2022-09-15T18:10:32.835Z,20.22
2022-09-15T18:13:54.582Z,20.20
2022-09-15T18:17:16.793Z,20.00
2022-09-15T18:20:41.795Z,20.13
2022-09-15T18:24:03.616Z,20.19
2022-09-15T18:27:25.098Z,20.06
2022-09-15T18:30:49.141Z,20.02
2022-09-15T18:34:13.181Z,19.97
2022-09-15T18:37:36.312Z,20.05
2022-09-15T18:40:58.547Z,20.09
2022-09-15T18:44:20.091Z,19.97
2022-09-15T18:47:46.497Z,19.96
2022-09-15T18:51:09.019Z,19.96
2022-09-15T18:54:36.262Z,19.99
2022-09-15T18:58:00.837Z,19.79
2022-09-15T19:01:22.864Z,19.18
2022-09-15T19:04:47.177Z,19.02
2022-09-15T19:08:13.560Z,19.41
2022-09-15T19:11:40.010Z,19.45
2022-09-15T19:15:03.790Z,19.64
2022-09-15T19:18:25.608Z,19.75
2022-09-15T19:21:47.110Z,19.90
2022-09-15T19:25:09.836Z,19.72
2022-09-15T19:28:31.937Z,19.92
2022-09-15T19:31:54.311Z,19.41
2022-09-15T19:35:15.861Z,19.26
2022-09-15T19:38:38.112Z,19.00
2022-09-15T19:41:59.765Z,19.02
2022-09-15T19:45:23.367Z,18.93
2022-09-15T19:48:49.448Z,19.13
2022-09-15T19:52:12.864Z,19.45
2022-09-15T19:55:34.445Z,19.47
2022-09-15T19:58:57.330Z,19.50
2022-09-15T20:02:21.211Z,19.39
2022-09-15T20:05:49.062Z,19.53
2022-09-15T20:09:10.786Z,19.54
2022-09-15T20:12:32.402Z,19.59
2022-09-15T20:16:02.886Z,19.54
2022-09-15T20:19:24.483Z,19.44
2022-09-15T20:22:46.762Z,19.18
2022-09-15T20:26:12.848Z,19.45
2022-09-15T20:29:34.766Z,19.48
2022-09-15T20:32:58.965Z,19.55
2022-09-15T20:36:25.874Z,19.43
2022-09-15T20:39:48.676Z,19.39
2022-09-15T20:43:10.243Z,19.55
2022-09-15T20:46:31.781Z,19.18
2022-09-15T20:49:55.981Z,19.23
2022-09-15T20:53:22.283Z,19.23
2022-09-15T20:56:43.776Z,19.32
2022-09-15T21:00:08.064Z,19.50
2022-09-15T21:03:29.906Z,19.50
2022-09-15T21:06:51.411Z,19.48
2022-09-15T21:10:12.952Z,19.48
2022-09-15T21:13:38.542Z,19.54
2022-09-15T21:17:00.332Z,19.54
2022-09-15T21:20:21.902Z,19.44
2022-09-15T21:23:55.649Z,19.32
2022-09-15T21:27:29.678Z,19.48
2022-09-15T21:30:53.955Z,18.59
2022-09-15T21:34:17.834Z,18.70
2022-09-15T21:37:42.065Z,18.47
2022-09-15T21:41:08.256Z,18.30
2022-09-15T21:44:29.756Z,18.53
2022-09-15T21:47:51.295Z,18.59
2022-09-15T21:51:23.526Z,18.73
2022-09-15T21:54:49.373Z,19.21
2022-09-15T21:58:16.767Z,19.04
2022-09-15T22:01:41.669Z,19.24
2022-09-15T22:05:03.365Z,19.16
2022-09-15T22:08:24.884Z,19.32
2022-09-15T22:11:46.423Z,19.18
2022-09-15T22:15:10.543Z,19.30
2022-09-15T22:18:34.886Z,19.38
2022-09-15T22:21:56.618Z,19.32
2022-09-15T22:25:21.777Z,19.27
2022-09-15T22:28:43.977Z,19.34
2022-09-15T22:32:05.531Z,19.32
2022-09-15T22:35:29.623Z,19.43
2022-09-15T22:38:51.712Z,19.21
2022-09-15T22:42:15.908Z,19.06
2022-09-15T22:45:40.031Z,19.09
2022-09-15T22:49:01.697Z,19.04
2022-09-15T22:52:23.205Z,18.85
2022-09-15T22:55:50.025Z,18.80
2022-09-15T22:59:13.669Z,18.88
2022-09-15T23:02:35.489Z,19.17
2022-09-15T23:05:58.477Z,19.13
2022-09-15T23:09:20.019Z,19.28
2022-09-15T23:12:41.545Z,19.06
2022-09-15T23:16:07.239Z,18.69
2022-09-15T23:19:28.773Z,18.65
2022-09-15T23:22:52.436Z,18.93
2022-09-15T23:26:15.459Z,19.09
2022-09-15T23:29:36.994Z,19.02
2022-09-15T23:33:03.377Z,19.20
2022-09-15T23:36:27.371Z,19.20
2022-09-15T23:39:48.895Z,19.39
2022-09-15T23:43:14.792Z,19.16
2022-09-15T23:46:36.411Z,19.27
2022-09-15T23:50:00.783Z,19.27
2022-09-15T23:53:24.648Z,19.18
2022-09-15T23:56:46.184Z,19.18
